Terminal Aerodrome Forecast
Issued by NWS

Home | Current Version | Previous Version | Text Only | Print | Product List | Glossary On
Versions: 1 2 3 4 5 6 7 8 9 10 11 12 13 14 15 16
000
FTUS45 KPIH 302100 AAA
TAFSUN
TAF AMD
KSUN 302114Z 3021/3118 15006KT P6SM VCTS SCT080CB BKN120
      TEMPO 3021/3022 VRB20G40KT P6SM -TSRA BKN060CB OVC120
     FM310300 31007KT P6SM FEW080 SCT120=

USA.gov is the U.S. government's official web portal to all federal, state and local government web resources and services.